Main page
METAR-TAF:

METAR-TAF

Airports :

Alexandroupoli Airport

Alexandroupoli, Greece

latitude: 40-51N, longitude: 025-55E, elevation: 7 m

Current weather observation

The report was made 21 minutes ago, at 16:50 UTC
Wind 20 kt from the South/Southwest with gusts up to 30 kt
Temperature 13°C
Humidity 77%
Pressure 1005 hPa
Visibility 10 km or more
Few clouds at a height of 1000 ft

METAR: LGAL 261650Z 20020G30KT 9999 FEW010 13/09 Q1005

Time: 19:11 (17:11 UTC)

Forecast

The report was made 3 hours and 11 minutes ago, at 14:00 UTC
Forecast valid from 26 at 15 UTC to 26 at 24 UTC
Wind 15 kt from the South/Southwest with gusts up to 25 kt
Visibility 10 km or more
Few clouds at a height of 1000 ft
Scattered clouds at a height of 1800 ft
Temporary
from 26 at 21 UTC to 26 at 24 UTC
Wind 25 kt from the South/Southwest with gusts up to 35 kt

TAF: LGAL 261400Z 2615/2624 20015G25KT 9999 FEW010 SCT018 TEMPO 2621/2624 20025G35KT

Weather observations and forecasts of more than 4000 airports (METAR and TAF reports).

The available stations are represented by yellow and red dots on the map.

Hover mouse over dot to see the name of the station.

Then click to see weather observations and forecasts.

To change the map : click on the green buttons with a black cross to zoom in, on the green button with a dash to zoom out, or on the green arrows for adjacent maps.


METAR-TAF: